MiSS Margy — WCY2616 — position and weather

sailwx.info

Track history (hours):
 
Tides and Currents Weather Stations Pressure Air Temp Water Temp Dewpoint Dewpoint Depression Visibility Wind Speed Wind Dir Waves Ship Positions

MiSS Margy

Owner: SHEPLERS INC, MACKINAW CITY, MI. More information available from US FCC via Universal Licensing System.

Last reported at 2017-Oct-17 23:13 UTC. Time now 2017-Oct-18 05:30 UTC.
Position N 45°48' W 084°42'.

Type: Passenger vessel. MMSI: 367721890.

Date/timePositionNaut miles runAvg speedWind from/ knotsBaromVisibWave heightAir tempDewpointWater temp
2017-Oct-17 23:13N 45°48' W 084°42'511.2
2017-Oct-17 22:49N 45°51' W 084°37'5 4.2
2017-Oct-17 21:38N 45°48' W 084°43'1 0.5
2017-Oct-17 20:39N 45°48' W 084°42'4 0.8
2017-Oct-17 14:52N 45°51' W 084°37'5 3.1
2017-Oct-17 13:13N 45°49' W 084°44'1 0.0
2017-Oct-16 22:38N 45°48' W 084°43'1 0.5
2017-Oct-16 21:36N 45°48' W 084°43'1 1.8
2017-Oct-16 21:16N 45°48' W 084°42'511.2
2017-Oct-16 20:50N 45°51' W 084°37'5 9.6
2017-Oct-16 20:17N 45°48' W 084°43'0 0.4
2017-Oct-16 19:38N 45°48' W 084°43'1 0.2
2017-Oct-16 14:48N 45°49' W 084°43'5 5.3
2017-Oct-16 13:53N 45°51' W 084°37'566.6
2017-Oct-16 13:48N 45°49' W 084°43'2 3.2
2017-Oct-16 13:14N 45°47' W 084°42'447.3
2017-Oct-16 13:09N 45°51' W 084°40'2 6.3
2017-Oct-16 12:50N 45°51' W 084°37'5 9.6
2017-Oct-16 12:16N 45°47' W 084°43'569.2
2017-Oct-16 12:12N 45°52' W 084°41'3 8.9
2017-Oct-16 11:49N 45°51' W 084°37'012.4
2017-Oct-16 11:48N 45°51' W 084°37'5 0.3
2017-Oct-15 17:38N 45°48' W 084°43'1 0.2
2017-Oct-15 14:35N 45°47' W 084°43'6 3.1
2017-Oct-15 12:49N 45°51' W 084°37'4 6.7
2017-Oct-15 12:16N 45°49' W 084°41'4 8.0
2017-Oct-15 11:48N 45°51' W 084°37'5 0.4
2017-Oct-14 23:13N 45°48' W 084°42'0 0.1
2017-Oct-14 17:13N 45°48' W 084°42'0 0.2
2017-Oct-14 15:21N 45°48' W 084°42'513.3
2017-Oct-14 15:00N 45°51' W 084°37'311.1
2017-Oct-14 14:43N 45°50' W 084°41'2 4.7
2017-Oct-14 14:19N 45°48' W 084°41'343.1
2017-Oct-14 14:15N 45°51' W 084°39'4 7.7
2017-Oct-14 13:45N 45°49' W 084°44'0 5.6
2017-Oct-14 13:40N 45°49' W 084°44'2 4.0
2017-Oct-14 13:12N 45°48' W 084°41'0 0.5
2017-Oct-14 12:14N 45°48' W 084°42'0 0.0
2017-Oct-14 00:14N 45°48' W 084°42'5 1.1
2017-Oct-13 19:49N 45°51' W 084°37'4 3.0
2017-Oct-13 18:21N 45°48' W 084°42'2 0.5
2017-Oct-13 14:48N 45°49' W 084°43'2 2.3
2017-Oct-13 13:59N 45°47' W 084°43'549.7
2017-Oct-13 13:52N 45°51' W 084°37'576.9
2017-Oct-13 13:48N 45°49' W 084°43'2 1.1
2017-Oct-13 12:14N 45°48' W 084°42'452.0
2017-Oct-13 12:10N 45°52' W 084°41'3 7.8
2017-Oct-13 11:48N 45°51' W 084°37'5 0.4
2017-Oct-12 22:15N 45°52' W 084°43'1 1.2
2017-Oct-12 21:15N 45°52' W 084°42'0 0.2
2017-Oct-12 20:18N 45°52' W 084°42'1 1.3
2017-Oct-12 19:21N 45°52' W 084°44'3 2.1
2017-Oct-12 18:11N 45°52' W 084°40'1 0.4
2017-Oct-12 15:20N 45°52' W 084°42'3 5.4
2017-Oct-12 14:45N 45°49' W 084°44'4 7.4
2017-Oct-12 14:16N 45°52' W 084°40'3 6.0
2017-Oct-12 13:49N 45°49' W 084°42'3 4.5
2017-Oct-12 13:13N 45°52' W 084°41'3 5.6
2017-Oct-12 12:44N 45°51' W 084°38'2 3.2
2017-Oct-12 12:11N 45°52' W 084°40'3 0.2
2017-Oct-11 22:17N 45°52' W 084°44'518.2
2017-Oct-11 22:00N 45°51' W 084°37'5 9.8
2017-Oct-11 21:30N 45°52' W 084°44'5 9.7
2017-Oct-11 21:00N 45°51' W 084°37'5 9.8
2017-Oct-11 20:31N 45°52' W 084°44'5 9.7
2017-Oct-11 20:00N 45°51' W 084°37'5 9.6
2017-Oct-11 19:30N 45°52' W 084°44'5 9.7
2017-Oct-11 19:00N 45°51' W 084°37'5 9.7
2017-Oct-11 18:30N 45°52' W 084°44'5 9.9
2017-Oct-11 18:00N 45°51' W 084°37'627.7
2017-Oct-11 17:47N 45°47' W 084°43'619.6
2017-Oct-11 17:30N 45°52' W 084°44'619952.2
2017-Oct-11 17:30N 45°47' W 084°43'0 0.0
2017-Oct-11 17:00N 45°47' W 084°43'6334.3
2017-Oct-11 16:59N 45°51' W 084°37'6 0.3
2017-Oct-10 23:18N 45°47' W 084°43'618.4
2017-Oct-10 22:59N 45°51' W 084°37'612.2
2017-Oct-10 22:29N 45°47' W 084°43'611.9
2017-Oct-10 21:59N 45°51' W 084°37'612.5
2017-Oct-10 21:31N 45°47' W 084°43'0 0.4
2017-Oct-10 21:29N 45°47' W 084°43'0 0.0
2017-Oct-10 21:00N 45°47' W 084°43'62144.5
2017-Oct-10 21:00N 45°51' W 084°37'611.9
2017-Oct-10 20:30N 45°47' W 084°43'61666.1
2017-Oct-10 20:30N 45°52' W 084°44'5 9.8
2017-Oct-10 20:00N 45°51' W 084°37'0 0.9
2017-Oct-10 19:59N 45°51' W 084°37'510.2
2017-Oct-10 19:30N 45°52' W 084°44'61534.5
2017-Oct-10 19:30N 45°47' W 084°43'612.1
2017-Oct-10 19:00N 45°51' W 084°37'0 8.0
2017-Oct-10 19:00N 45°51' W 084°37'612.0
2017-Oct-10 18:30N 45°47' W 084°43'6624.8
2017-Oct-10 18:30N 45°52' W 084°44'5 9.6
2017-Oct-10 17:59N 45°51' W 084°37'0 2.9
2017-Oct-10 17:59N 45°51' W 084°37'510.3
2017-Oct-10 17:30N 45°52' W 084°44'69995.5
2017-Oct-10 17:30N 45°47' W 084°43'0 0.4
2017-Oct-10 17:22N 45°47' W 084°43'0 0.0
2017-Oct-10 17:00N 45°47' W 084°43'6854.8
2017-Oct-10 17:00N 45°51' W 084°37'0 1.2
2017-Oct-10 16:59N 45°51' W 084°37'612.5
2017-Oct-10 16:30N 45°47' W 084°43'66649.3
2017-Oct-10 16:30N 45°52' W 084°44'62217.3
2017-Oct-10 16:30N 45°47' W 084°43'612.0
2017-Oct-10 16:00N 45°51' W 084°37'610670.0
2017-Oct-10 16:00N 45°47' W 084°43'61187.2
2017-Oct-10 16:00N 45°51' W 084°37'612.0
2017-Oct-10 15:30N 45°47' W 084°43'61817.4
2017-Oct-10 15:30N 45°52' W 084°44'510.3
2017-Oct-10 15:00N 45°51' W 084°37'61958.6
2017-Oct-10 15:00N 45°47' W 084°43'6 6.0
2017-Oct-10 14:00N 45°51' W 084°37'0 5.6
2017-Oct-10 13:59N 45°51' W 084°37'612.5
2017-Oct-10 13:30N 45°47' W 084°43'6111.7
2017-Oct-10 13:27N 45°52' W 084°44'511.0
2017-Oct-10 13:00N 45°51' W 084°37'010.7
2017-Oct-10 13:00N 45°51' W 084°37'5 9.8
2017-Oct-10 12:30N 45°52' W 084°44'61999.1
2017-Oct-10 12:30N 45°47' W 084°43'612.1
2017-Oct-10 12:00N 45°51' W 084°37'0 0.4
2017-Oct-10 11:58N 45°51' W 084°37'510.8
2017-Oct-10 11:30N 45°52' W 084°44'64987.6
2017-Oct-10 11:30N 45°47' W 084°43'0 0.0
2017-Oct-09 23:19N 45°47' W 084°43'618.7
2017-Oct-09 23:00N 45°51' W 084°37'612.0
2017-Oct-09 22:30N 45°47' W 084°43'635.6
2017-Oct-09 22:21N 45°52' W 084°44'513.9
2017-Oct-09 22:00N 45°51' W 084°37'0 4.0
2017-Oct-09 22:00N 45°51' W 084°37'612.2
2017-Oct-09 21:30N 45°47' W 084°43'61107.2
2017-Oct-09 21:30N 45°52' W 084°44'5 9.5
2017-Oct-09 20:59N 45°51' W 084°37'0 1.3
2017-Oct-09 20:59N 45°51' W 084°37'612.6
2017-Oct-09 20:30N 45°47' W 084°43'61343.9
2017-Oct-09 20:30N 45°52' W 084°44'5 9.8
2017-Oct-09 20:00N 45°51' W 084°37'012.0
2017-Oct-09 20:00N 45°51' W 084°37'611.9
2017-Oct-09 19:30N 45°47' W 084°43'61250.8
2017-Oct-09 19:30N 45°52' W 084°44'5 9.9
2017-Oct-09 19:00N 45°51' W 084°37'0 0.9
2017-Oct-09 18:59N 45°51' W 084°37'612.3
2017-Oct-09 18:30N 45°47' W 084°43'62501.6
2017-Oct-09 18:30N 45°52' W 084°44'5 9.9
2017-Oct-09 18:00N 45°51' W 084°37'0 8.0
2017-Oct-09 18:00N 45°51' W 084°37'612.0
2017-Oct-09 17:30N 45°47' W 084°43'66664.5
2017-Oct-09 17:30N 45°52' W 084°44'5 9.7
2017-Oct-09 17:00N 45°51' W 084°37'0 3.2
2017-Oct-09 17:00N 45°51' W 084°37'612.1
2017-Oct-09 16:30N 45°47' W 084°43'6711.7
2017-Oct-09 16:30N 45°52' W 084°44'510.0
2017-Oct-09 16:00N 45°51' W 084°37'0 5.8
2017-Oct-09 16:00N 45°51' W 084°37'3 6.0
2017-Oct-09 15:31N 45°49' W 084°40'41248.5
2017-Oct-09 15:30N 45°52' W 084°44'611.1
2017-Oct-09 15:00N 45°47' W 084°43'56133.3
2017-Oct-09 15:00N 45°50' W 084°38'510.3
2017-Oct-09 14:30N 45°47' W 084°43'65003.1
2017-Oct-09 14:30N 45°52' W 084°44'510.1
2017-Oct-09 14:01N 45°51' W 084°37'033.8
2017-Oct-09 14:00N 45°51' W 084°37'5 9.8
2017-Oct-09 13:30N 45°52' W 084°44'66663.7
2017-Oct-09 13:30N 45°47' W 084°43'612.0
2017-Oct-09 13:00N 45°51' W 084°37'0 0.5
2017-Oct-09 12:59N 45°51' W 084°37'612.2
2017-Oct-09 12:30N 45°47' W 084°43'6317.4
2017-Oct-09 12:29N 45°52' W 084°44'510.2
2017-Oct-09 12:00N 45°51' W 084°37'0 1.0
2017-Oct-09 11:59N 45°51' W 084°37'510.3
2017-Oct-09 11:31N 45°52' W 084°44'0 0.0
2017-Oct-09 11:00N 45°52' W 084°44'6 0.5
2017-Oct-08 23:23N 45°47' W 084°43'615.5
2017-Oct-08 23:00N 45°51' W 084°37'612.0
2017-Oct-08 22:30N 45°47' W 084°43'631.5
2017-Oct-08 22:20N 45°52' W 084°44'515.0
2017-Oct-08 22:00N 45°51' W 084°37'0 3.2
2017-Oct-08 22:00N 45°51' W 084°37'5 9.9
2017-Oct-08 21:30N 45°52' W 084°44'61534.5
2017-Oct-08 21:30N 45°47' W 084°43'612.0
2017-Oct-08 21:00N 45°51' W 084°37'0 5.3
2017-Oct-08 21:00N 45°51' W 084°37'612.0
2017-Oct-08 20:30N 45°47' W 084°43'6526.1
2017-Oct-08 20:30N 45°52' W 084°44'5 9.9
2017-Oct-08 20:00N 45°51' W 084°37'016.0
2017-Oct-08 20:00N 45°51' W 084°37'612.0
2017-Oct-08 19:30N 45°47' W 084°43'61049.9
2017-Oct-08 19:30N 45°52' W 084°44'5 9.7
2017-Oct-08 19:00N 45°51' W 084°37'0 2.1
2017-Oct-08 18:59N 45°51' W 084°37'612.3
2017-Oct-08 18:30N 45°47' W 084°43'62221.2
2017-Oct-08 18:30N 45°52' W 084°44'5 9.9
2017-Oct-08 18:00N 45°51' W 084°37'063.9
2017-Oct-08 18:00N 45°51' W 084°37'612.0
2017-Oct-08 17:30N 45°47' W 084°43'61428.1
2017-Oct-08 17:30N 45°52' W 084°44'5 9.7
2017-Oct-08 17:00N 45°51' W 084°37'0 5.3
2017-Oct-08 17:00N 45°51' W 084°37'6474.2
2017-Oct-08 16:59N 45°47' W 084°43'611.6
2017-Oct-08 16:30N 45°52' W 084°44'69975.2
2017-Oct-08 16:30N 45°47' W 084°43'6315.7
2017-Oct-08 16:29N 45°51' W 084°37'0 0.1
2017-Oct-08 16:00N 45°51' W 084°37'050.7
2017-Oct-08 16:00N 45°51' W 084°37'0 5.8
2017-Oct-08 16:00N 45°51' W 084°37'612.0
2017-Oct-08 15:30N 45°47' W 084°43'62499.4
2017-Oct-08 15:30N 45°52' W 084°44'5 9.9
2017-Oct-08 15:00N 45°51' W 084°37'0265.1
2017-Oct-08 15:00N 45°51' W 084°37'0121.2
2017-Oct-08 15:00N 45°51' W 084°37'612.1
2017-Oct-08 14:31N 45°47' W 084°43'1468.9
2017-Oct-08 14:30N 45°48' W 084°44'4882.1
2017-Oct-08 14:30N 45°52' W 084°44'5 9.9
2017-Oct-08 14:00N 45°51' W 084°37'1595.3
2017-Oct-08 14:00N 45°50' W 084°38'1185.5
2017-Oct-08 14:00N 45°51' W 084°37'612.3
2017-Oct-08 13:31N 45°47' W 084°43'22930.3
2017-Oct-08 13:30N 45°49' W 084°41'4306.9
2017-Oct-08 13:30N 45°52' W 084°44'4 9.1
2017-Oct-08 13:01N 45°48' W 084°41'43259.0
2017-Oct-08 13:00N 45°51' W 084°37'0 1.4
2017-Oct-08 13:00N 45°51' W 084°37'5 9.9
2017-Oct-08 12:30N 45°52' W 084°44'63998.2
2017-Oct-08 12:30N 45°47' W 084°43'56083.0
2017-Oct-08 12:30N 45°50' W 084°38'1 2.0
2017-Oct-08 12:00N 45°51' W 084°37'62147.1
2017-Oct-08 12:00N 45°47' W 084°43'6522.9
2017-Oct-08 12:00N 45°51' W 084°37'612.2
2017-Oct-08 11:30N 45°47' W 084°43'6486.6
2017-Oct-08 11:30N 45°52' W 084°44'6 0.5
2017-Oct-08 00:21N 45°47' W 084°43'617.6
2017-Oct-08 00:00N 45°51' W 084°37'612.0
2017-Oct-07 23:30N 45°47' W 084°43'626.7
2017-Oct-07 23:18N 45°52' W 084°44'  
Track history (hours):
 
Tides and Currents Weather Stations Pressure Air Temp Water Temp Dewpoint Dewpoint Depression Visibility Wind Speed Wind Dir Waves Ship Positions

MiSS Margy

Owner: SHEPLERS INC, MACKINAW CITY, MI. More information available from US FCC via Universal Licensing System.

Last reported at 2017-Oct-17 23:13 UTC. Time now 2017-Oct-18 05:30 UTC.
Position N 45°48' W 084°42'.

Type: Passenger vessel. MMSI: 367721890.

Date/timePositionNaut miles runAvg speedWind from/ knotsBaromVisibWave heightAir tempDewpointWater temp
2017-Oct-17 23:13N 45°48' W 084°42'511.2
2017-Oct-17 22:49N 45°51' W 084°37'5 4.2
2017-Oct-17 21:38N 45°48' W 084°43'1 0.5
2017-Oct-17 20:39N 45°48' W 084°42'4 0.8
2017-Oct-17 14:52N 45°51' W 084°37'5 3.1
2017-Oct-17 13:13N 45°49' W 084°44'1 0.0
2017-Oct-16 22:38N 45°48' W 084°43'1 0.5
2017-Oct-16 21:36N 45°48' W 084°43'1 1.8
2017-Oct-16 21:16N 45°48' W 084°42'511.2
2017-Oct-16 20:50N 45°51' W 084°37'5 9.6
2017-Oct-16 20:17N 45°48' W 084°43'0 0.4
2017-Oct-16 19:38N 45°48' W 084°43'1 0.2
2017-Oct-16 14:48N 45°49' W 084°43'5 5.3
2017-Oct-16 13:53N 45°51' W 084°37'566.6
2017-Oct-16 13:48N 45°49' W 084°43'2 3.2
2017-Oct-16 13:14N 45°47' W 084°42'447.3
2017-Oct-16 13:09N 45°51' W 084°40'2 6.3
2017-Oct-16 12:50N 45°51' W 084°37'5 9.6
2017-Oct-16 12:16N 45°47' W 084°43'569.2
2017-Oct-16 12:12N 45°52' W 084°41'3 8.9
2017-Oct-16 11:49N 45°51' W 084°37'012.4
2017-Oct-16 11:48N 45°51' W 084°37'5 0.3
2017-Oct-15 17:38N 45°48' W 084°43'1 0.2
2017-Oct-15 14:35N 45°47' W 084°43'6 3.1
2017-Oct-15 12:49N 45°51' W 084°37'4 6.7
2017-Oct-15 12:16N 45°49' W 084°41'4 8.0
2017-Oct-15 11:48N 45°51' W 084°37'5 0.4
2017-Oct-14 23:13N 45°48' W 084°42'0 0.1
2017-Oct-14 17:13N 45°48' W 084°42'0 0.2
2017-Oct-14 15:21N 45°48' W 084°42'513.3
2017-Oct-14 15:00N 45°51' W 084°37'311.1
2017-Oct-14 14:43N 45°50' W 084°41'2 4.7
2017-Oct-14 14:19N 45°48' W 084°41'343.1
2017-Oct-14 14:15N 45°51' W 084°39'4 7.7
2017-Oct-14 13:45N 45°49' W 084°44'0 5.6
2017-Oct-14 13:40N 45°49' W 084°44'2 4.0
2017-Oct-14 13:12N 45°48' W 084°41'0 0.5
2017-Oct-14 12:14N 45°48' W 084°42'0 0.0
2017-Oct-14 00:14N 45°48' W 084°42'5 1.1
2017-Oct-13 19:49N 45°51' W 084°37'4 3.0
2017-Oct-13 18:21N 45°48' W 084°42'2 0.5
2017-Oct-13 14:48N 45°49' W 084°43'2 2.3
2017-Oct-13 13:59N 45°47' W 084°43'549.7
2017-Oct-13 13:52N 45°51' W 084°37'576.9
2017-Oct-13 13:48N 45°49' W 084°43'2 1.1
2017-Oct-13 12:14N 45°48' W 084°42'452.0
2017-Oct-13 12:10N 45°52' W 084°41'3 7.8
2017-Oct-13 11:48N 45°51' W 084°37'5 0.4
2017-Oct-12 22:15N 45°52' W 084°43'1 1.2
2017-Oct-12 21:15N 45°52' W 084°42'0 0.2
2017-Oct-12 20:18N 45°52' W 084°42'1 1.3
2017-Oct-12 19:21N 45°52' W 084°44'3 2.1
2017-Oct-12 18:11N 45°52' W 084°40'1 0.4
2017-Oct-12 15:20N 45°52' W 084°42'3 5.4
2017-Oct-12 14:45N 45°49' W 084°44'4 7.4
2017-Oct-12 14:16N 45°52' W 084°40'3 6.0
2017-Oct-12 13:49N 45°49' W 084°42'3 4.5
2017-Oct-12 13:13N 45°52' W 084°41'3 5.6
2017-Oct-12 12:44N 45°51' W 084°38'2 3.2
2017-Oct-12 12:11N 45°52' W 084°40'3 0.2
2017-Oct-11 22:17N 45°52' W 084°44'518.2
2017-Oct-11 22:00N 45°51' W 084°37'5 9.8
2017-Oct-11 21:30N 45°52' W 084°44'5 9.7
2017-Oct-11 21:00N 45°51' W 084°37'5 9.8
2017-Oct-11 20:31N 45°52' W 084°44'5 9.7
2017-Oct-11 20:00N 45°51' W 084°37'5 9.6
2017-Oct-11 19:30N 45°52' W 084°44'5 9.7
2017-Oct-11 19:00N 45°51' W 084°37'5 9.7
2017-Oct-11 18:30N 45°52' W 084°44'5 9.9
2017-Oct-11 18:00N 45°51' W 084°37'627.7
2017-Oct-11 17:47N 45°47' W 084°43'619.6
2017-Oct-11 17:30N 45°52' W 084°44'619952.2
2017-Oct-11 17:30N 45°47' W 084°43'0 0.0
2017-Oct-11 17:00N 45°47' W 084°43'6334.3
2017-Oct-11 16:59N 45°51' W 084°37'6 0.3
2017-Oct-10 23:18N 45°47' W 084°43'618.4
2017-Oct-10 22:59N 45°51' W 084°37'612.2
2017-Oct-10 22:29N 45°47' W 084°43'611.9
2017-Oct-10 21:59N 45°51' W 084°37'612.5
2017-Oct-10 21:31N 45°47' W 084°43'0 0.4
2017-Oct-10 21:29N 45°47' W 084°43'0 0.0
2017-Oct-10 21:00N 45°47' W 084°43'62144.5
2017-Oct-10 21:00N 45°51' W 084°37'611.9
2017-Oct-10 20:30N 45°47' W 084°43'61666.1
2017-Oct-10 20:30N 45°52' W 084°44'5 9.8
2017-Oct-10 20:00N 45°51' W 084°37'0 0.9
2017-Oct-10 19:59N 45°51' W 084°37'510.2
2017-Oct-10 19:30N 45°52' W 084°44'61534.5
2017-Oct-10 19:30N 45°47' W 084°43'612.1
2017-Oct-10 19:00N 45°51' W 084°37'0 8.0
2017-Oct-10 19:00N 45°51' W 084°37'612.0
2017-Oct-10 18:30N 45°47' W 084°43'6624.8
2017-Oct-10 18:30N 45°52' W 084°44'5 9.6
2017-Oct-10 17:59N 45°51' W 084°37'0 2.9
2017-Oct-10 17:59N 45°51' W 084°37'510.3
2017-Oct-10 17:30N 45°52' W 084°44'69995.5
2017-Oct-10 17:30N 45°47' W 084°43'0 0.4
2017-Oct-10 17:22N 45°47' W 084°43'0 0.0
2017-Oct-10 17:00N 45°47' W 084°43'6854.8
2017-Oct-10 17:00N 45°51' W 084°37'0 1.2
2017-Oct-10 16:59N 45°51' W 084°37'612.5
2017-Oct-10 16:30N 45°47' W 084°43'66649.3
2017-Oct-10 16:30N 45°52' W 084°44'62217.3
2017-Oct-10 16:30N 45°47' W 084°43'612.0
2017-Oct-10 16:00N 45°51' W 084°37'610670.0
2017-Oct-10 16:00N 45°47' W 084°43'61187.2
2017-Oct-10 16:00N 45°51' W 084°37'612.0
2017-Oct-10 15:30N 45°47' W 084°43'61817.4
2017-Oct-10 15:30N 45°52' W 084°44'510.3
2017-Oct-10 15:00N 45°51' W 084°37'61958.6
2017-Oct-10 15:00N 45°47' W 084°43'6 6.0
2017-Oct-10 14:00N 45°51' W 084°37'0 5.6
2017-Oct-10 13:59N 45°51' W 084°37'612.5
2017-Oct-10 13:30N 45°47' W 084°43'6111.7
2017-Oct-10 13:27N 45°52' W 084°44'511.0
2017-Oct-10 13:00N 45°51' W 084°37'010.7
2017-Oct-10 13:00N 45°51' W 084°37'5 9.8
2017-Oct-10 12:30N 45°52' W 084°44'61999.1
2017-Oct-10 12:30N 45°47' W 084°43'612.1
2017-Oct-10 12:00N 45°51' W 084°37'0 0.4
2017-Oct-10 11:58N 45°51' W 084°37'510.8
2017-Oct-10 11:30N 45°52' W 084°44'64987.6
2017-Oct-10 11:30N 45°47' W 084°43'0 0.0
2017-Oct-09 23:19N 45°47' W 084°43'618.7
2017-Oct-09 23:00N 45°51' W 084°37'612.0
2017-Oct-09 22:30N 45°47' W 084°43'635.6
2017-Oct-09 22:21N 45°52' W 084°44'513.9
2017-Oct-09 22:00N 45°51' W 084°37'0 4.0
2017-Oct-09 22:00N 45°51' W 084°37'612.2
2017-Oct-09 21:30N 45°47' W 084°43'61107.2
2017-Oct-09 21:30N 45°52' W 084°44'5 9.5
2017-Oct-09 20:59N 45°51' W 084°37'0 1.3
2017-Oct-09 20:59N 45°51' W 084°37'612.6
2017-Oct-09 20:30N 45°47' W 084°43'61343.9
2017-Oct-09 20:30N 45°52' W 084°44'5 9.8
2017-Oct-09 20:00N 45°51' W 084°37'012.0
2017-Oct-09 20:00N 45°51' W 084°37'611.9
2017-Oct-09 19:30N 45°47' W 084°43'61250.8
2017-Oct-09 19:30N 45°52' W 084°44'5 9.9
2017-Oct-09 19:00N 45°51' W 084°37'0 0.9
2017-Oct-09 18:59N 45°51' W 084°37'612.3
2017-Oct-09 18:30N 45°47' W 084°43'62501.6
2017-Oct-09 18:30N 45°52' W 084°44'5 9.9
2017-Oct-09 18:00N 45°51' W 084°37'0 8.0
2017-Oct-09 18:00N 45°51' W 084°37'612.0
2017-Oct-09 17:30N 45°47' W 084°43'66664.5
2017-Oct-09 17:30N 45°52' W 084°44'5 9.7
2017-Oct-09 17:00N 45°51' W 084°37'0 3.2
2017-Oct-09 17:00N 45°51' W 084°37'612.1
2017-Oct-09 16:30N 45°47' W 084°43'6711.7
2017-Oct-09 16:30N 45°52' W 084°44'510.0
2017-Oct-09 16:00N 45°51' W 084°37'0 5.8
2017-Oct-09 16:00N 45°51' W 084°37'3 6.0
2017-Oct-09 15:31N 45°49' W 084°40'41248.5
2017-Oct-09 15:30N 45°52' W 084°44'611.1
2017-Oct-09 15:00N 45°47' W 084°43'56133.3
2017-Oct-09 15:00N 45°50' W 084°38'510.3
2017-Oct-09 14:30N 45°47' W 084°43'65003.1
2017-Oct-09 14:30N 45°52' W 084°44'510.1
2017-Oct-09 14:01N 45°51' W 084°37'033.8
2017-Oct-09 14:00N 45°51' W 084°37'5 9.8
2017-Oct-09 13:30N 45°52' W 084°44'66663.7
2017-Oct-09 13:30N 45°47' W 084°43'612.0
2017-Oct-09 13:00N 45°51' W 084°37'0 0.5
2017-Oct-09 12:59N 45°51' W 084°37'612.2
2017-Oct-09 12:30N 45°47' W 084°43'6317.4
2017-Oct-09 12:29N 45°52' W 084°44'510.2
2017-Oct-09 12:00N 45°51' W 084°37'0 1.0
2017-Oct-09 11:59N 45°51' W 084°37'510.3
2017-Oct-09 11:31N 45°52' W 084°44'0 0.0
2017-Oct-09 11:00N 45°52' W 084°44'6 0.5
2017-Oct-08 23:23N 45°47' W 084°43'615.5
2017-Oct-08 23:00N 45°51' W 084°37'612.0
2017-Oct-08 22:30N 45°47' W 084°43'631.5
2017-Oct-08 22:20N 45°52' W 084°44'515.0
2017-Oct-08 22:00N 45°51' W 084°37'0 3.2
2017-Oct-08 22:00N 45°51' W 084°37'5 9.9
2017-Oct-08 21:30N 45°52' W 084°44'61534.5
2017-Oct-08 21:30N 45°47' W 084°43'612.0
2017-Oct-08 21:00N 45°51' W 084°37'0 5.3
2017-Oct-08 21:00N 45°51' W 084°37'612.0
2017-Oct-08 20:30N 45°47' W 084°43'6526.1
2017-Oct-08 20:30N 45°52' W 084°44'5 9.9
2017-Oct-08 20:00N 45°51' W 084°37'016.0
2017-Oct-08 20:00N 45°51' W 084°37'612.0
2017-Oct-08 19:30N 45°47' W 084°43'61049.9
2017-Oct-08 19:30N 45°52' W 084°44'5 9.7
2017-Oct-08 19:00N 45°51' W 084°37'0 2.1
2017-Oct-08 18:59N 45°51' W 084°37'612.3
2017-Oct-08 18:30N 45°47' W 084°43'62221.2
2017-Oct-08 18:30N 45°52' W 084°44'5 9.9
2017-Oct-08 18:00N 45°51' W 084°37'063.9
2017-Oct-08 18:00N 45°51' W 084°37'612.0
2017-Oct-08 17:30N 45°47' W 084°43'61428.1
2017-Oct-08 17:30N 45°52' W 084°44'5 9.7
2017-Oct-08 17:00N 45°51' W 084°37'0 5.3
2017-Oct-08 17:00N 45°51' W 084°37'6474.2
2017-Oct-08 16:59N 45°47' W 084°43'611.6
2017-Oct-08 16:30N 45°52' W 084°44'69975.2
2017-Oct-08 16:30N 45°47' W 084°43'6315.7
2017-Oct-08 16:29N 45°51' W 084°37'0 0.1
2017-Oct-08 16:00N 45°51' W 084°37'050.7
2017-Oct-08 16:00N 45°51' W 084°37'0 5.8
2017-Oct-08 16:00N 45°51' W 084°37'612.0
2017-Oct-08 15:30N 45°47' W 084°43'62499.4
2017-Oct-08 15:30N 45°52' W 084°44'5 9.9
2017-Oct-08 15:00N 45°51' W 084°37'0265.1
2017-Oct-08 15:00N 45°51' W 084°37'0121.2
2017-Oct-08 15:00N 45°51' W 084°37'612.1
2017-Oct-08 14:31N 45°47' W 084°43'1468.9
2017-Oct-08 14:30N 45°48' W 084°44'4882.1
2017-Oct-08 14:30N 45°52' W 084°44'5 9.9
2017-Oct-08 14:00N 45°51' W 084°37'1595.3
2017-Oct-08 14:00N 45°50' W 084°38'1185.5
2017-Oct-08 14:00N 45°51' W 084°37'612.3
2017-Oct-08 13:31N 45°47' W 084°43'22930.3
2017-Oct-08 13:30N 45°49' W 084°41'4306.9
2017-Oct-08 13:30N 45°52' W 084°44'4 9.1
2017-Oct-08 13:01N 45°48' W 084°41'43259.0
2017-Oct-08 13:00N 45°51' W 084°37'0 1.4
2017-Oct-08 13:00N 45°51' W 084°37'5 9.9
2017-Oct-08 12:30N 45°52' W 084°44'63998.2
2017-Oct-08 12:30N 45°47' W 084°43'56083.0
2017-Oct-08 12:30N 45°50' W 084°38'1 2.0
2017-Oct-08 12:00N 45°51' W 084°37'62147.1
2017-Oct-08 12:00N 45°47' W 084°43'6522.9
2017-Oct-08 12:00N 45°51' W 084°37'612.2
2017-Oct-08 11:30N 45°47' W 084°43'6486.6
2017-Oct-08 11:30N 45°52' W 084°44'6 0.5
2017-Oct-08 00:21N 45°47' W 084°43'617.6
2017-Oct-08 00:00N 45°51' W 084°37'612.0
2017-Oct-07 23:30N 45°47' W 084°43'626.7
2017-Oct-07 23:18N 45°52' W 084°44'  

Dump ship's entire track history